Goodyear, AZ

12:20 AM MST on August 28, 2014 (GMT -0700)
I-10 & Estrella Pkwy. | Change Station
CLOSE
Current Station
Personal Weather Station
Location: Goodyear, AZ
Elevation: 1004 ft
Nearby Weather Stations

Elev 1004 ft 33.46 °N, 112.40 °W | Updated 4 minutes ago

Clear
Clear
86.8 °F
Feels Like 84 °F
N
0.0
Wind Variable Wind from North
Gusts 0.0 mph

Today
High -- | Low -- °F
--% Chance of Precip.
Yesterday
High -- | Low -- °F
Precip. -- in
6:00 AM 6:59 PM
Waxing Crescent, 7% visible
Pressure 29.88 in
Visibility 10.0 miles
Clouds Clear
Heat Index 84 °F
Dew Point Not available.
Humidity Not available.
Rainfall -999.00 in
Snow Depth Not available.
UV 0 out of 12
Pollen 5.00 out of 12
Ozone Good
PM2.5 Good
Flu Activity Not available.
METAR KLUF 280658Z AUTO 04005KT 10SM CLR 32/17 A2992 RMK AO2 SLP116 T03180167 403820270 VISNO RWY03 CHINO RWY03 $

More Conditions Fewer Conditions

Pressure 29.88 in
Visibility 10.0 miles
Clouds Clear
Heat Index 84 °F
Dew Point Not available.
Humidity Not available.
Rainfall -999.00 in
Snow Depth Not available.
UV 0 out of 12
Pollen 5.00 out of 12
Ozone Good
PM2.5 Good
Flu Activity Not available.
METAR KLUF 280658Z AUTO 04005KT 10SM CLR 32/17 A2992 RMK AO2 SLP116 T03180167 403820270 VISNO RWY03 CHINO RWY03 $

More Conditions Fewer Conditions

10-Day Weather Forecast

Almanac

Astronomy

Aug. 28, 2014 Rise Set
Actual Time 6:00 AM MST 6:59 PM MST
Civil Twilight 5:35 AM MST 7:25 PM MST
Nautical Twilight 5:05 AM MST 7:55 PM MST
Astronomical Twilight 4:34 AM MST 8:26 PM MST
Moon 8:46 AM MST 8:37 PM MST
Length of Visible Light 13h 49m
Length of Day
12h 58m
Tomorrow will be 1m 56s shorter.
Waxing Crescent, 7% of the Moon is Illuminated
Today
Waxing Crescent
Sep 2
First Quarter
Sep 8
Full
Sep 15
Last Quarter
Sep 24
New

Community

WunderPhotos

Upload Photos

1,747,912 photos uploaded!

Nearby

Air Quality

  Air Quality AQ Index Pollutant
Yesterday Good
OZONE
Yesterday Good
PM10
Current Good
OZONE
Current Good
PM2.5
Wednesday Moderate
OZONE
Wednesday Good
PM10
Wednesday Good
CO
Thursday Moderate
OZONE
Thursday Good
PM10
Thursday Good
CO
Friday Moderate
OZONE
Friday Good
PM10
Friday Good
CO

Snow Depth

Station Depth Elevation
Workman Creek 2 in 6900 ft
Promontory 0 in 7930 ft
Mormon Mountain 0 in 7500 ft
White Horse Lake 0 in 7180 ft
Snowslide Canyon 1 in 9730 ft

Earthquake Activity

City Distance Mag. Time & Date
No recent earthquake activity has been reported nearby.
Minimum magnitude displayed is 2.5.

Coastal Water Temperatures

Place Temperature
No Stations Reporting

Nearby Weather Stations